sensor_id;sensor_type;location;lat;lon;timestamp;temperature;humidity
2571;DHT22;1295;51.130;6.732;2024-02-21T00:01:40;9.40;99.90
2571;DHT22;1295;51.130;6.732;2024-02-21T00:04:06;9.40;99.90
2571;DHT22;1295;51.130;6.732;2024-02-21T00:06:32;9.40;99.90
2571;DHT22;1295;51.130;6.732;2024-02-21T00:08:57;9.40;99.90
2571;DHT22;1295;51.130;6.732;2024-02-21T00:11:23;9.40;99.90
2571;DHT22;1295;51.130;6.732;2024-02-21T00:13:49;9.40;99.90
2571;DHT22;1295;51.130;6.732;2024-02-21T00:16:14;9.30;99.90
2571;DHT22;1295;51.130;6.732;2024-02-21T00:18:40;9.30;99.90
2571;DHT22;1295;51.130;6.732;2024-02-21T00:21:05;9.30;99.90
2571;DHT22;1295;51.130;6.732;2024-02-21T00:23:31;9.30;99.90
2571;DHT22;1295;51.130;6.732;2024-02-21T00:25:57;9.30;99.90
2571;DHT22;1295;51.130;6.732;2024-02-21T00:28:23;9.40;99.90
2571;DHT22;1295;51.130;6.732;2024-02-21T00:30:48;9.40;99.90
2571;DHT22;1295;51.130;6.732;2024-02-21T00:33:14;9.30;99.90
2571;DHT22;1295;51.130;6.732;2024-02-21T00:35:40;9.30;99.90
2571;DHT22;1295;51.130;6.732;2024-02-21T00:38:06;9.20;99.90
2571;DHT22;1295;51.130;6.732;2024-02-21T00:40:33;9.30;99.90
2571;DHT22;1295;51.130;6.732;2024-02-21T00:42:59;9.30;99.90
2571;DHT22;1295;51.130;6.732;2024-02-21T00:45:25;9.40;99.90
2571;DHT22;1295;51.130;6.732;2024-02-21T00:47:50;9.30;99.90
2571;DHT22;1295;51.130;6.732;2024-02-21T00:50:16;9.40;99.90
2571;DHT22;1295;51.130;6.732;2024-02-21T00:52:41;9.30;99.90
2571;DHT22;1295;51.130;6.732;2024-02-21T00:55:08;9.30;99.90
2571;DHT22;1295;51.130;6.732;2024-02-21T00:57:33;9.20;99.90
2571;DHT22;1295;51.130;6.732;2024-02-21T00:59:59;9.30;99.90
2571;DHT22;1295;51.130;6.732;2024-02-21T01:02:25;9.30;99.90
2571;DHT22;1295;51.130;6.732;2024-02-21T01:04:50;9.30;99.90
2571;DHT22;1295;51.130;6.732;2024-02-21T01:07:17;9.30;99.90
2571;DHT22;1295;51.130;6.732;2024-02-21T01:09:42;9.30;99.90
2571;DHT22;1295;51.130;6.732;2024-02-21T01:12:08;9.30;99.90
2571;DHT22;1295;51.130;6.732;2024-02-21T01:14:33;9.20;99.90
2571;DHT22;1295;51.130;6.732;2024-02-21T01:16:59;9.30;99.90
2571;DHT22;1295;51.130;6.732;2024-02-21T01:19:26;9.40;99.90
2571;DHT22;1295;51.130;6.732;2024-02-21T01:21:51;9.40;99.90
2571;DHT22;1295;51.130;6.732;2024-02-21T01:24:17;9.30;99.90
2571;DHT22;1295;51.130;6.732;2024-02-21T01:26:43;9.20;99.90
2571;DHT22;1295;51.130;6.732;2024-02-21T01:29:08;9.10;99.90
2571;DHT22;1295;51.130;6.732;2024-02-21T01:31:35;9.20;99.90
2571;DHT22;1295;51.130;6.732;2024-02-21T01:34:01;9.20;99.90
2571;DHT22;1295;51.130;6.732;2024-02-21T01:36:27;9.30;99.90
2571;DHT22;1295;51.130;6.732;2024-02-21T01:38:53;9.30;99.90
2571;DHT22;1295;51.130;6.732;2024-02-21T01:41:18;9.00;99.90
2571;DHT22;1295;51.130;6.732;2024-02-21T01:43:44;9.10;99.90
2571;DHT22;1295;51.130;6.732;2024-02-21T01:46:10;9.10;99.90
2571;DHT22;1295;51.130;6.732;2024-02-21T01:48:35;9.20;99.90
2571;DHT22;1295;51.130;6.732;2024-02-21T01:51:01;9.20;99.90
2571;DHT22;1295;51.130;6.732;2024-02-21T01:53:29;9.20;99.90
2571;DHT22;1295;51.130;6.732;2024-02-21T01:55:54;9.00;99.90
2571;DHT22;1295;51.130;6.732;2024-02-21T01:58:19;9.00;99.90
2571;DHT22;1295;51.130;6.732;2024-02-21T02:00:46;9.20;99.90
2571;DHT22;1295;51.130;6.732;2024-02-21T02:03:12;9.20;99.90
2571;DHT22;1295;51.130;6.732;2024-02-21T02:05:45;9.20;99.90
2571;DHT22;1295;51.130;6.732;2024-02-21T02:08:10;9.10;99.90
2571;DHT22;1295;51.130;6.732;2024-02-21T02:10:35;9.10;99.90
2571;DHT22;1295;51.130;6.732;2024-02-21T02:13:01;9.20;99.90
2571;DHT22;1295;51.130;6.732;2024-02-21T02:15:26;9.10;99.90
2571;DHT22;1295;51.130;6.732;2024-02-21T02:17:52;9.00;99.90
2571;DHT22;1295;51.130;6.732;2024-02-21T02:20:18;9.20;99.90
2571;DHT22;1295;51.130;6.732;2024-02-21T02:22:43;9.20;99.90
2571;DHT22;1295;51.130;6.732;2024-02-21T02:25:09;9.10;99.90
2571;DHT22;1295;51.130;6.732;2024-02-21T02:27:42;9.20;99.90
2571;DHT22;1295;51.130;6.732;2024-02-21T02:30:08;9.00;99.90
2571;DHT22;1295;51.130;6.732;2024-02-21T02:32:34;9.10;99.90
2571;DHT22;1295;51.130;6.732;2024-02-21T02:35:00;9.10;99.90
2571;DHT22;1295;51.130;6.732;2024-02-21T02:37:25;9.10;99.90
2571;DHT22;1295;51.130;6.732;2024-02-21T02:39:51;9.20;99.90
2571;DHT22;1295;51.130;6.732;2024-02-21T02:42:17;9.30;99.90
2571;DHT22;1295;51.130;6.732;2024-02-21T02:44:42;9.20;99.90
2571;DHT22;1295;51.130;6.732;2024-02-21T02:47:08;9.20;99.90
2571;DHT22;1295;51.130;6.732;2024-02-21T02:49:34;9.20;99.90
2571;DHT22;1295;51.130;6.732;2024-02-21T02:51:59;9.20;99.90
2571;DHT22;1295;51.130;6.732;2024-02-21T02:54:25;9.20;99.90
2571;DHT22;1295;51.130;6.732;2024-02-21T02:56:51;9.20;99.90
2571;DHT22;1295;51.130;6.732;2024-02-21T02:59:17;9.20;99.90
2571;DHT22;1295;51.130;6.732;2024-02-21T03:01:43;9.20;99.90
2571;DHT22;1295;51.130;6.732;2024-02-21T03:04:08;9.10;99.90
2571;DHT22;1295;51.130;6.732;2024-02-21T03:06:35;9.30;99.90
2571;DHT22;1295;51.130;6.732;2024-02-21T03:08:59;9.20;99.90
2571;DHT22;1295;51.130;6.732;2024-02-21T03:11:26;9.00;99.90
2571;DHT22;1295;51.130;6.732;2024-02-21T03:13:51;9.00;99.90
2571;DHT22;1295;51.130;6.732;2024-02-21T03:16:17;9.00;99.90
2571;DHT22;1295;51.130;6.732;2024-02-21T03:18:43;9.00;99.90
2571;DHT22;1295;51.130;6.732;2024-02-21T03:21:08;9.10;99.90
2571;DHT22;1295;51.130;6.732;2024-02-21T03:23:34;9.00;99.90
2571;DHT22;1295;51.130;6.732;2024-02-21T03:26:00;9.10;99.90
2571;DHT22;1295;51.130;6.732;2024-02-21T03:28:25;9.10;99.90
2571;DHT22;1295;51.130;6.732;2024-02-21T03:30:51;9.00;99.90
2571;DHT22;1295;51.130;6.732;2024-02-21T03:33:17;9.10;99.90
2571;DHT22;1295;51.130;6.732;2024-02-21T03:35:43;9.10;99.90
2571;DHT22;1295;51.130;6.732;2024-02-21T03:38:09;9.10;99.90
2571;DHT22;1295;51.130;6.732;2024-02-21T03:40:34;9.10;99.90
2571;DHT22;1295;51.130;6.732;2024-02-21T03:43:05;8.90;99.90
2571;DHT22;1295;51.130;6.732;2024-02-21T03:45:41;8.90;99.90
2571;DHT22;1295;51.130;6.732;2024-02-21T03:48:07;9.00;99.90
2571;DHT22;1295;51.130;6.732;2024-02-21T03:50:32;9.20;99.90
2571;DHT22;1295;51.130;6.732;2024-02-21T03:52:58;9.20;99.90
2571;DHT22;1295;51.130;6.732;2024-02-21T03:55:24;9.30;99.90
2571;DHT22;1295;51.130;6.732;2024-02-21T03:57:50;9.30;99.90
2571;DHT22;1295;51.130;6.732;2024-02-21T04:00:17;9.20;99.90
2571;DHT22;1295;51.130;6.732;2024-02-21T04:02:43;9.20;99.90
2571;DHT22;1295;51.130;6.732;2024-02-21T04:05:08;9.20;99.90
2571;DHT22;1295;51.130;6.732;2024-02-21T04:07:35;9.10;99.90
2571;DHT22;1295;51.130;6.732;2024-02-21T04:10:00;9.10;99.90
2571;DHT22;1295;51.130;6.732;2024-02-21T04:12:36;9.10;99.90
2571;DHT22;1295;51.130;6.732;2024-02-21T04:15:02;9.00;99.90
2571;DHT22;1295;51.130;6.732;2024-02-21T04:17:28;9.10;99.90
2571;DHT22;1295;51.130;6.732;2024-02-21T04:19:56;9.00;99.90
2571;DHT22;1295;51.130;6.732;2024-02-21T04:22:19;9.10;99.90
2571;DHT22;1295;51.130;6.732;2024-02-21T04:24:45;9.20;99.90
2571;DHT22;1295;51.130;6.732;2024-02-21T04:27:11;9.20;99.90
2571;DHT22;1295;51.130;6.732;2024-02-21T04:29:36;9.20;99.90
2571;DHT22;1295;51.130;6.732;2024-02-21T04:32:02;9.40;99.90
2571;DHT22;1295;51.130;6.732;2024-02-21T04:34:28;9.30;99.90
2571;DHT22;1295;51.130;6.732;2024-02-21T04:36:54;9.20;99.90
2571;DHT22;1295;51.130;6.732;2024-02-21T04:39:19;9.10;99.90
2571;DHT22;1295;51.130;6.732;2024-02-21T04:41:46;9.10;99.90
2571;DHT22;1295;51.130;6.732;2024-02-21T04:44:12;9.10;99.90
2571;DHT22;1295;51.130;6.732;2024-02-21T04:46:37;9.10;99.90
2571;DHT22;1295;51.130;6.732;2024-02-21T04:49:03;9.10;99.90
2571;DHT22;1295;51.130;6.732;2024-02-21T04:51:28;9.00;99.90
2571;DHT22;1295;51.130;6.732;2024-02-21T04:53:54;9.10;99.90
2571;DHT22;1295;51.130;6.732;2024-02-21T04:56:20;9.20;99.90
2571;DHT22;1295;51.130;6.732;2024-02-21T04:58:46;9.10;99.90
2571;DHT22;1295;51.130;6.732;2024-02-21T05:01:11;9.30;99.90
2571;DHT22;1295;51.130;6.732;2024-02-21T05:03:38;9.10;99.90
2571;DHT22;1295;51.130;6.732;2024-02-21T05:06:04;9.10;99.90
2571;DHT22;1295;51.130;6.732;2024-02-21T05:08:29;9.20;99.90
2571;DHT22;1295;51.130;6.732;2024-02-21T05:10:56;9.10;99.90
2571;DHT22;1295;51.130;6.732;2024-02-21T05:13:21;9.10;99.90
2571;DHT22;1295;51.130;6.732;2024-02-21T05:15:47;9.00;99.90
2571;DHT22;1295;51.130;6.732;2024-02-21T05:18:13;9.00;99.90
2571;DHT22;1295;51.130;6.732;2024-02-21T05:20:39;9.20;99.90
2571;DHT22;1295;51.130;6.732;2024-02-21T05:23:04;9.00;99.90
2571;DHT22;1295;51.130;6.732;2024-02-21T05:25:30;9.00;99.90
2571;DHT22;1295;51.130;6.732;2024-02-21T05:27:56;9.00;99.90
2571;DHT22;1295;51.130;6.732;2024-02-21T05:30:22;8.90;99.90
2571;DHT22;1295;51.130;6.732;2024-02-21T05:32:48;8.90;99.90
2571;DHT22;1295;51.130;6.732;2024-02-21T05:35:13;8.80;99.90
2571;DHT22;1295;51.130;6.732;2024-02-21T05:37:39;9.00;99.90
2571;DHT22;1295;51.130;6.732;2024-02-21T05:40:06;8.90;99.90
2571;DHT22;1295;51.130;6.732;2024-02-21T05:42:32;8.90;99.90
2571;DHT22;1295;51.130;6.732;2024-02-21T05:44:58;8.90;99.90
2571;DHT22;1295;51.130;6.732;2024-02-21T05:47:23;9.00;99.90
2571;DHT22;1295;51.130;6.732;2024-02-21T05:49:49;9.00;99.90
2571;DHT22;1295;51.130;6.732;2024-02-21T05:52:15;9.10;99.90
2571;DHT22;1295;51.130;6.732;2024-02-21T05:54:40;9.10;99.90
2571;DHT22;1295;51.130;6.732;2024-02-21T05:57:07;9.00;99.90
2571;DHT22;1295;51.130;6.732;2024-02-21T05:59:32;9.00;99.90
2571;DHT22;1295;51.130;6.732;2024-02-21T06:01:58;9.20;99.90
2571;DHT22;1295;51.130;6.732;2024-02-21T06:04:24;9.20;99.90
2571;DHT22;1295;51.130;6.732;2024-02-21T06:06:50;9.00;99.90
2571;DHT22;1295;51.130;6.732;2024-02-21T06:09:16;9.00;99.90
2571;DHT22;1295;51.130;6.732;2024-02-21T06:11:42;8.90;99.90
2571;DHT22;1295;51.130;6.732;2024-02-21T06:14:07;8.90;99.90
2571;DHT22;1295;51.130;6.732;2024-02-21T06:16:34;8.80;99.90
2571;DHT22;1295;51.130;6.732;2024-02-21T06:18:59;8.80;99.90
2571;DHT22;1295;51.130;6.732;2024-02-21T06:21:28;8.90;99.90
2571;DHT22;1295;51.130;6.732;2024-02-21T06:23:51;8.80;99.90
2571;DHT22;1295;51.130;6.732;2024-02-21T06:26:17;8.80;99.90
2571;DHT22;1295;51.130;6.732;2024-02-21T06:28:43;8.80;99.90
2571;DHT22;1295;51.130;6.732;2024-02-21T06:31:09;8.80;99.90
2571;DHT22;1295;51.130;6.732;2024-02-21T06:33:35;8.80;99.90
2571;DHT22;1295;51.130;6.732;2024-02-21T06:36:06;8.80;99.90
2571;DHT22;1295;51.130;6.732;2024-02-21T06:38:43;8.80;99.90
2571;DHT22;1295;51.130;6.732;2024-02-21T06:41:14;8.80;99.90
2571;DHT22;1295;51.130;6.732;2024-02-21T06:43:39;8.90;99.90
2571;DHT22;1295;51.130;6.732;2024-02-21T06:46:05;8.80;99.90
2571;DHT22;1295;51.130;6.732;2024-02-21T06:48:31;8.90;99.90
2571;DHT22;1295;51.130;6.732;2024-02-21T06:50:56;9.00;99.90
2571;DHT22;1295;51.130;6.732;2024-02-21T06:53:22;8.90;99.90
2571;DHT22;1295;51.130;6.732;2024-02-21T06:55:48;8.90;99.90
2571;DHT22;1295;51.130;6.732;2024-02-21T06:58:13;9.00;99.90
2571;DHT22;1295;51.130;6.732;2024-02-21T07:00:39;9.00;99.90
2571;DHT22;1295;51.130;6.732;2024-02-21T07:03:05;9.00;99.90
2571;DHT22;1295;51.130;6.732;2024-02-21T07:05:31;9.00;99.90
2571;DHT22;1295;51.130;6.732;2024-02-21T07:07:57;9.00;99.90
2571;DHT22;1295;51.130;6.732;2024-02-21T07:10:24;9.00;99.90
2571;DHT22;1295;51.130;6.732;2024-02-21T07:12:56;9.00;99.90
2571;DHT22;1295;51.130;6.732;2024-02-21T07:15:22;8.90;99.90
2571;DHT22;1295;51.130;6.732;2024-02-21T07:17:48;9.00;99.90
2571;DHT22;1295;51.130;6.732;2024-02-21T07:20:14;9.00;99.90
2571;DHT22;1295;51.130;6.732;2024-02-21T07:22:41;9.20;99.90
2571;DHT22;1295;51.130;6.732;2024-02-21T07:25:08;9.20;99.90
2571;DHT22;1295;51.130;6.732;2024-02-21T07:27:34;9.10;99.90
2571;DHT22;1295;51.130;6.732;2024-02-21T07:30:00;9.10;99.90
2571;DHT22;1295;51.130;6.732;2024-02-21T07:32:25;9.10;99.90
2571;DHT22;1295;51.130;6.732;2024-02-21T07:34:52;9.00;99.90
2571;DHT22;1295;51.130;6.732;2024-02-21T07:37:18;8.90;99.90
2571;DHT22;1295;51.130;6.732;2024-02-21T07:39:44;8.90;99.90
2571;DHT22;1295;51.130;6.732;2024-02-21T07:42:10;8.90;99.90
2571;DHT22;1295;51.130;6.732;2024-02-21T07:44:36;8.90;99.90
2571;DHT22;1295;51.130;6.732;2024-02-21T07:47:02;9.10;99.90
2571;DHT22;1295;51.130;6.732;2024-02-21T07:49:28;9.10;99.90
2571;DHT22;1295;51.130;6.732;2024-02-21T07:51:54;8.90;99.90
2571;DHT22;1295;51.130;6.732;2024-02-21T07:54:21;9.00;99.90
2571;DHT22;1295;51.130;6.732;2024-02-21T07:56:46;9.00;99.90
2571;DHT22;1295;51.130;6.732;2024-02-21T07:59:12;9.00;99.90
2571;DHT22;1295;51.130;6.732;2024-02-21T08:01:37;9.00;99.90
2571;DHT22;1295;51.130;6.732;2024-02-21T08:04:03;8.90;99.90
2571;DHT22;1295;51.130;6.732;2024-02-21T08:06:29;8.90;99.90
2571;DHT22;1295;51.130;6.732;2024-02-21T08:08:54;8.90;99.90
2571;DHT22;1295;51.130;6.732;2024-02-21T08:11:20;8.90;99.90
2571;DHT22;1295;51.130;6.732;2024-02-21T08:13:46;8.90;99.90
2571;DHT22;1295;51.130;6.732;2024-02-21T08:16:11;9.00;99.90
2571;DHT22;1295;51.130;6.732;2024-02-21T08:18:37;9.00;99.90
2571;DHT22;1295;51.130;6.732;2024-02-21T08:21:03;9.00;99.90
2571;DHT22;1295;51.130;6.732;2024-02-21T08:23:29;9.00;99.90
2571;DHT22;1295;51.130;6.732;2024-02-21T08:25:54;8.90;99.90
2571;DHT22;1295;51.130;6.732;2024-02-21T08:28:20;9.00;99.90
2571;DHT22;1295;51.130;6.732;2024-02-21T08:30:46;9.00;99.90
2571;DHT22;1295;51.130;6.732;2024-02-21T08:33:13;8.90;99.90
2571;DHT22;1295;51.130;6.732;2024-02-21T08:35:38;8.80;99.90
2571;DHT22;1295;51.130;6.732;2024-02-21T08:38:04;9.10;99.90
2571;DHT22;1295;51.130;6.732;2024-02-21T08:40:30;8.90;99.90
2571;DHT22;1295;51.130;6.732;2024-02-21T08:42:55;8.80;99.90
2571;DHT22;1295;51.130;6.732;2024-02-21T08:45:29;9.00;99.90
2571;DHT22;1295;51.130;6.732;2024-02-21T08:47:54;9.00;99.90
2571;DHT22;1295;51.130;6.732;2024-02-21T08:50:20;8.90;99.90
2571;DHT22;1295;51.130;6.732;2024-02-21T08:52:45;8.80;99.90
2571;DHT22;1295;51.130;6.732;2024-02-21T08:55:11;8.90;99.90
2571;DHT22;1295;51.130;6.732;2024-02-21T08:57:37;8.90;99.90
2571;DHT22;1295;51.130;6.732;2024-02-21T09:00:04;9.10;99.90
2571;DHT22;1295;51.130;6.732;2024-02-21T09:02:30;9.10;99.90
2571;DHT22;1295;51.130;6.732;2024-02-21T09:04:56;8.90;99.90
2571;DHT22;1295;51.130;6.732;2024-02-21T09:07:22;9.00;99.90
2571;DHT22;1295;51.130;6.732;2024-02-21T09:09:48;8.80;99.90
2571;DHT22;1295;51.130;6.732;2024-02-21T09:12:14;8.80;99.90
2571;DHT22;1295;51.130;6.732;2024-02-21T09:14:40;8.80;99.90
2571;DHT22;1295;51.130;6.732;2024-02-21T09:17:05;8.80;99.90
2571;DHT22;1295;51.130;6.732;2024-02-21T09:19:32;8.90;99.90
2571;DHT22;1295;51.130;6.732;2024-02-21T09:22:02;8.90;99.90
2571;DHT22;1295;51.130;6.732;2024-02-21T09:24:28;8.80;99.90
2571;DHT22;1295;51.130;6.732;2024-02-21T09:26:54;8.90;99.90
2571;DHT22;1295;51.130;6.732;2024-02-21T09:29:19;8.90;99.90
2571;DHT22;1295;51.130;6.732;2024-02-21T09:31:45;9.00;99.90
2571;DHT22;1295;51.130;6.732;2024-02-21T09:34:11;9.00;99.90
2571;DHT22;1295;51.130;6.732;2024-02-21T09:36:36;9.00;99.90
2571;DHT22;1295;51.130;6.732;2024-02-21T09:39:02;8.90;99.90
2571;DHT22;1295;51.130;6.732;2024-02-21T09:41:33;9.00;99.90
2571;DHT22;1295;51.130;6.732;2024-02-21T09:43:59;9.00;99.90
2571;DHT22;1295;51.130;6.732;2024-02-21T09:47:17;9.00;99.90
2571;DHT22;1295;51.130;6.732;2024-02-21T09:49:30;9.10;99.90
2571;DHT22;1295;51.130;6.732;2024-02-21T09:51:55;9.10;99.90
2571;DHT22;1295;51.130;6.732;2024-02-21T09:54:21;9.10;99.90
2571;DHT22;1295;51.130;6.732;2024-02-21T09:56:46;9.10;99.90
2571;DHT22;1295;51.130;6.732;2024-02-21T09:59:12;9.20;99.90
2571;DHT22;1295;51.130;6.732;2024-02-21T10:01:37;9.20;99.90
2571;DHT22;1295;51.130;6.732;2024-02-21T10:04:04;9.30;99.90
2571;DHT22;1295;51.130;6.732;2024-02-21T10:06:30;9.30;99.90
2571;DHT22;1295;51.130;6.732;2024-02-21T10:08:55;9.30;99.90
2571;DHT22;1295;51.130;6.732;2024-02-21T10:11:23;9.30;99.90
2571;DHT22;1295;51.130;6.732;2024-02-21T10:13:49;9.30;99.90
2571;DHT22;1295;51.130;6.732;2024-02-21T10:16:14;9.30;99.90
2571;DHT22;1295;51.130;6.732;2024-02-21T10:18:41;9.30;99.90
2571;DHT22;1295;51.130;6.732;2024-02-21T10:21:07;9.40;99.90
2571;DHT22;1295;51.130;6.732;2024-02-21T10:23:40;9.40;99.90
2571;DHT22;1295;51.130;6.732;2024-02-21T10:26:07;9.40;99.90
2571;DHT22;1295;51.130;6.732;2024-02-21T10:28:37;9.40;99.90
2571;DHT22;1295;51.130;6.732;2024-02-21T10:31:03;9.40;99.90
2571;DHT22;1295;51.130;6.732;2024-02-21T10:33:29;9.50;99.90
2571;DHT22;1295;51.130;6.732;2024-02-21T10:35:54;9.40;99.90
2571;DHT22;1295;51.130;6.732;2024-02-21T10:38:21;9.50;99.90
2571;DHT22;1295;51.130;6.732;2024-02-21T10:40:46;9.50;99.90
2571;DHT22;1295;51.130;6.732;2024-02-21T10:43:12;9.50;99.90
2571;DHT22;1295;51.130;6.732;2024-02-21T10:45:38;9.60;99.90
2571;DHT22;1295;51.130;6.732;2024-02-21T10:48:11;9.60;99.90
2571;DHT22;1295;51.130;6.732;2024-02-21T10:50:36;9.60;99.90
2571;DHT22;1295;51.130;6.732;2024-02-21T10:53:05;9.60;99.90
2571;DHT22;1295;51.130;6.732;2024-02-21T10:55:30;9.60;99.90
2571;DHT22;1295;51.130;6.732;2024-02-21T10:57:52;9.70;99.90
2571;DHT22;1295;51.130;6.732;2024-02-21T11:00:18;9.80;99.90
2571;DHT22;1295;51.130;6.732;2024-02-21T11:02:44;9.90;99.90
2571;DHT22;1295;51.130;6.732;2024-02-21T11:05:09;10.00;99.90
2571;DHT22;1295;51.130;6.732;2024-02-21T11:07:36;10.20;99.90
2571;DHT22;1295;51.130;6.732;2024-02-21T11:10:01;10.30;99.90
2571;DHT22;1295;51.130;6.732;2024-02-21T11:12:27;10.30;99.90
2571;DHT22;1295;51.130;6.732;2024-02-21T11:15:03;10.30;99.90
2571;DHT22;1295;51.130;6.732;2024-02-21T11:17:19;10.20;99.90
2571;DHT22;1295;51.130;6.732;2024-02-21T11:19:44;10.30;99.90
2571;DHT22;1295;51.130;6.732;2024-02-21T11:22:15;10.30;99.90
2571;DHT22;1295;51.130;6.732;2024-02-21T11:24:40;10.10;99.90
2571;DHT22;1295;51.130;6.732;2024-02-21T11:27:08;10.10;99.90
2571;DHT22;1295;51.130;6.732;2024-02-21T11:29:32;10.10;99.90
2571;DHT22;1295;51.130;6.732;2024-02-21T11:31:58;10.00;99.90
2571;DHT22;1295;51.130;6.732;2024-02-21T11:34:24;10.00;99.90
2571;DHT22;1295;51.130;6.732;2024-02-21T11:36:50;9.90;99.90
2571;DHT22;1295;51.130;6.732;2024-02-21T11:39:20;9.90;99.90
2571;DHT22;1295;51.130;6.732;2024-02-21T11:41:46;9.90;99.90
2571;DHT22;1295;51.130;6.732;2024-02-21T11:44:11;10.00;99.90
2571;DHT22;1295;51.130;6.732;2024-02-21T11:46:36;9.90;99.90
2571;DHT22;1295;51.130;6.732;2024-02-21T11:51:59;10.10;99.90
2571;DHT22;1295;51.130;6.732;2024-02-21T11:54:24;10.40;99.90
2571;DHT22;1295;51.130;6.732;2024-02-21T11:56:50;10.20;99.90
2571;DHT22;1295;51.130;6.732;2024-02-21T11:59:15;10.20;99.90
2571;DHT22;1295;51.130;6.732;2024-02-21T12:01:41;10.20;99.90
2571;DHT22;1295;51.130;6.732;2024-02-21T12:04:14;10.30;99.90
2571;DHT22;1295;51.130;6.732;2024-02-21T12:06:39;10.10;99.90
2571;DHT22;1295;51.130;6.732;2024-02-21T12:09:07;10.20;99.90
2571;DHT22;1295;51.130;6.732;2024-02-21T12:11:31;10.20;99.90
2571;DHT22;1295;51.130;6.732;2024-02-21T12:14:01;10.10;99.90
2571;DHT22;1295;51.130;6.732;2024-02-21T12:16:27;10.30;99.90
2571;DHT22;1295;51.130;6.732;2024-02-21T12:18:53;10.50;99.90
2571;DHT22;1295;51.130;6.732;2024-02-21T12:21:18;10.50;99.90
2571;DHT22;1295;51.130;6.732;2024-02-21T12:23:44;10.40;99.90
2571;DHT22;1295;51.130;6.732;2024-02-21T12:26:10;10.40;99.90
2571;DHT22;1295;51.130;6.732;2024-02-21T12:28:35;10.40;99.90
2571;DHT22;1295;51.130;6.732;2024-02-21T12:31:01;10.60;99.90
2571;DHT22;1295;51.130;6.732;2024-02-21T12:33:27;10.40;99.90
2571;DHT22;1295;51.130;6.732;2024-02-21T12:35:53;11.00;99.90
2571;DHT22;1295;51.130;6.732;2024-02-21T12:38:19;11.00;99.90
2571;DHT22;1295;51.130;6.732;2024-02-21T12:40:44;10.90;99.90
2571;DHT22;1295;51.130;6.732;2024-02-21T12:43:10;11.10;99.90
2571;DHT22;1295;51.130;6.732;2024-02-21T12:45:36;11.30;99.90
2571;DHT22;1295;51.130;6.732;2024-02-21T12:48:03;11.30;99.90
2571;DHT22;1295;51.130;6.732;2024-02-21T12:50:29;11.10;99.90
2571;DHT22;1295;51.130;6.732;2024-02-21T12:52:54;11.40;99.90
2571;DHT22;1295;51.130;6.732;2024-02-21T12:55:20;11.30;99.90
2571;DHT22;1295;51.130;6.732;2024-02-21T12:57:45;11.30;99.90
2571;DHT22;1295;51.130;6.732;2024-02-21T13:00:12;11.20;99.90
2571;DHT22;1295;51.130;6.732;2024-02-21T13:02:38;11.10;99.90
2571;DHT22;1295;51.130;6.732;2024-02-21T13:05:04;10.90;99.90
2571;DHT22;1295;51.130;6.732;2024-02-21T13:07:30;11.20;99.90
2571;DHT22;1295;51.130;6.732;2024-02-21T13:09:56;11.10;99.90
2571;DHT22;1295;51.130;6.732;2024-02-21T13:12:21;11.70;99.90
2571;DHT22;1295;51.130;6.732;2024-02-21T13:14:47;11.90;99.90
2571;DHT22;1295;51.130;6.732;2024-02-21T13:17:13;11.60;99.90
2571;DHT22;1295;51.130;6.732;2024-02-21T13:19:38;11.80;99.90
2571;DHT22;1295;51.130;6.732;2024-02-21T13:22:04;12.00;99.90
2571;DHT22;1295;51.130;6.732;2024-02-21T13:24:30;12.00;99.90
2571;DHT22;1295;51.130;6.732;2024-02-21T13:26:56;12.10;99.90
2571;DHT22;1295;51.130;6.732;2024-02-21T13:29:22;12.10;99.90
2571;DHT22;1295;51.130;6.732;2024-02-21T13:31:48;12.10;99.90
2571;DHT22;1295;51.130;6.732;2024-02-21T13:34:13;12.10;99.90
2571;DHT22;1295;51.130;6.732;2024-02-21T13:36:39;12.00;99.90
2571;DHT22;1295;51.130;6.732;2024-02-21T13:39:04;11.50;99.90
2571;DHT22;1295;51.130;6.732;2024-02-21T13:41:30;11.50;99.90
2571;DHT22;1295;51.130;6.732;2024-02-21T13:43:56;11.60;99.90
2571;DHT22;1295;51.130;6.732;2024-02-21T13:46:21;11.20;99.90
2571;DHT22;1295;51.130;6.732;2024-02-21T13:48:47;11.60;99.90
2571;DHT22;1295;51.130;6.732;2024-02-21T13:51:12;11.60;99.90
2571;DHT22;1295;51.130;6.732;2024-02-21T13:53:38;11.60;99.90
2571;DHT22;1295;51.130;6.732;2024-02-21T13:56:04;11.50;99.90
2571;DHT22;1295;51.130;6.732;2024-02-21T13:58:30;11.50;99.90
2571;DHT22;1295;51.130;6.732;2024-02-21T14:01:03;11.50;99.90
2571;DHT22;1295;51.130;6.732;2024-02-21T14:03:28;11.30;99.90
2571;DHT22;1295;51.130;6.732;2024-02-21T14:05:55;11.20;99.90
2571;DHT22;1295;51.130;6.732;2024-02-21T14:08:21;11.20;99.90
2571;DHT22;1295;51.130;6.732;2024-02-21T14:10:46;11.50;99.90
2571;DHT22;1295;51.130;6.732;2024-02-21T14:13:12;11.30;99.90
2571;DHT22;1295;51.130;6.732;2024-02-21T14:15:39;11.40;99.90
2571;DHT22;1295;51.130;6.732;2024-02-21T14:18:04;11.30;99.90
2571;DHT22;1295;51.130;6.732;2024-02-21T14:20:30;11.40;99.90
2571;DHT22;1295;51.130;6.732;2024-02-21T14:22:55;11.30;99.90
2571;DHT22;1295;51.130;6.732;2024-02-21T14:25:21;11.30;99.90
2571;DHT22;1295;51.130;6.732;2024-02-21T14:27:47;11.40;99.90
2571;DHT22;1295;51.130;6.732;2024-02-21T14:30:12;11.50;99.90
2571;DHT22;1295;51.130;6.732;2024-02-21T14:32:39;11.50;99.90
2571;DHT22;1295;51.130;6.732;2024-02-21T14:35:05;11.60;99.90
2571;DHT22;1295;51.130;6.732;2024-02-21T14:37:30;11.50;99.90
2571;DHT22;1295;51.130;6.732;2024-02-21T14:39:56;11.50;99.90
2571;DHT22;1295;51.130;6.732;2024-02-21T14:42:22;11.40;99.90
2571;DHT22;1295;51.130;6.732;2024-02-21T14:44:47;11.20;99.90
2571;DHT22;1295;51.130;6.732;2024-02-21T14:47:13;11.30;99.90
2571;DHT22;1295;51.130;6.732;2024-02-21T14:49:39;11.40;99.90
2571;DHT22;1295;51.130;6.732;2024-02-21T14:52:04;11.30;99.90
2571;DHT22;1295;51.130;6.732;2024-02-21T14:54:30;11.40;99.90
2571;DHT22;1295;51.130;6.732;2024-02-21T14:56:56;11.40;99.90
2571;DHT22;1295;51.130;6.732;2024-02-21T14:59:21;11.30;99.90
2571;DHT22;1295;51.130;6.732;2024-02-21T15:01:47;11.40;99.90
2571;DHT22;1295;51.130;6.732;2024-02-21T15:04:13;11.40;99.90
2571;DHT22;1295;51.130;6.732;2024-02-21T15:06:38;11.10;99.90
2571;DHT22;1295;51.130;6.732;2024-02-21T15:09:04;11.20;99.90
2571;DHT22;1295;51.130;6.732;2024-02-21T15:11:30;11.20;99.90
2571;DHT22;1295;51.130;6.732;2024-02-21T15:13:55;11.10;99.90
2571;DHT22;1295;51.130;6.732;2024-02-21T15:16:21;10.90;99.90
2571;DHT22;1295;51.130;6.732;2024-02-21T15:18:47;10.70;99.90
2571;DHT22;1295;51.130;6.732;2024-02-21T15:21:12;10.80;99.90
2571;DHT22;1295;51.130;6.732;2024-02-21T15:23:38;10.90;99.90
2571;DHT22;1295;51.130;6.732;2024-02-21T15:26:03;10.80;99.90
2571;DHT22;1295;51.130;6.732;2024-02-21T15:28:36;11.00;99.90
2571;DHT22;1295;51.130;6.732;2024-02-21T15:31:02;11.00;99.90
2571;DHT22;1295;51.130;6.732;2024-02-21T15:33:27;11.20;99.90
2571;DHT22;1295;51.130;6.732;2024-02-21T15:35:53;11.20;99.90
2571;DHT22;1295;51.130;6.732;2024-02-21T15:38:19;11.30;99.90
2571;DHT22;1295;51.130;6.732;2024-02-21T15:40:44;11.50;99.90
2571;DHT22;1295;51.130;6.732;2024-02-21T15:43:10;11.30;99.90
2571;DHT22;1295;51.130;6.732;2024-02-21T15:45:35;11.40;99.90
2571;DHT22;1295;51.130;6.732;2024-02-21T15:48:01;11.40;99.90
2571;DHT22;1295;51.130;6.732;2024-02-21T15:50:27;11.30;99.90
2571;DHT22;1295;51.130;6.732;2024-02-21T15:52:52;11.30;99.90
2571;DHT22;1295;51.130;6.732;2024-02-21T15:55:18;11.30;99.90
2571;DHT22;1295;51.130;6.732;2024-02-21T15:57:44;11.30;99.90
2571;DHT22;1295;51.130;6.732;2024-02-21T16:00:10;11.30;99.90
2571;DHT22;1295;51.130;6.732;2024-02-21T16:02:36;11.20;99.90
2571;DHT22;1295;51.130;6.732;2024-02-21T16:05:02;11.10;99.90
2571;DHT22;1295;51.130;6.732;2024-02-21T16:07:27;11.20;99.90